Portada
METAR-TAF:

METAR-TAF

Aeroports :

Lima, Perú

latitud: 12-00S, longitud: 077-07W, altitud: 12 m

Observació

L'informe es va fer fa 1 hora i 0 minuts, a les 19:00 UTC
Vent 10 kt del Sud
Temperatura 21°C
Humitat 73%
Pressió 1013 hPa
Visibilitat 10 km o més
Escasses núvols a una alçada de 1800 ft
Cel cobert a una alçada de 2300 ft

METAR: SPJC 131900Z 17010KT 9999 FEW018 OVC023 21/16 Q1013 NOSIG RMK PP000

Hora: 15:00 (20:00 UTC)

Pronòstic

L'informe es va fer fa 3 hores i 0 minuts, a les 17:00 UTC
Pronòstic vàlid del 13 a les 18 UTC al 14 a les 18 UTC
Vent 10 kt del Sud
Visibilitat 10 km o més
Cel ennuvolat a una alçada de 1600 ft
Evolucionant progressivament
l' 14 a les 01 UTC al 14 a les 03 UTC
Cel cobert a una alçada de 1400 ft
Evolucionant progressivament
l' 14 a les 13 UTC al 14 a les 15 UTC
Cel cobert a una alçada de 1600 ft

TAF: SPJC 131700Z 1318/1418 18010KT 9999 BKN016 TX23/1318Z TN17/1411Z BECMG 1401/1403 OVC014 BECMG 1413/1415 OVC016

Observacions i pronòstics meteorològics de més de 4000 aeroports (METAR i TAF).

Les estacions disponibles són els punts grocs i vermells al mapa.

Posi el ratolí al punt desitjat per veure el nom de l'estació.

Feu clic per veure les observacions i els pronòstics meteorològics.

Per canviar el mapa: feu clic els botons verds amb una creu de color negre per apropar; al botó verd amb un guió per allunyar la imatge; o en les fletxes verdes per a mapes adjacents.


METAR-TAF: